sensor_id;sensor_type;location;lat;lon;timestamp;pressure;altitude;pressure_sealevel;temperature;humidity
66090;BME280;53113;45.602;11.904;2022-09-12T00:02:20;101382.57;;;19.79;61.28
66090;BME280;53113;45.602;11.904;2022-09-12T00:04:46;101380.65;;;19.75;61.35
66090;BME280;53113;45.602;11.904;2022-09-12T00:07:12;101381.61;;;19.71;61.31
66090;BME280;53113;45.602;11.904;2022-09-12T00:09:38;101383.48;;;19.66;61.37
66090;BME280;53113;45.602;11.904;2022-09-12T00:12:04;101380.04;;;19.61;61.36
66090;BME280;53113;45.602;11.904;2022-09-12T00:14:30;101379.88;;;19.58;61.42
66090;BME280;53113;45.602;11.904;2022-09-12T00:16:57;101387.49;;;19.53;61.50
66090;BME280;53113;45.602;11.904;2022-09-12T00:19:25;101388.69;;;19.54;61.44
66090;BME280;53113;45.602;11.904;2022-09-12T00:21:51;101383.73;;;19.53;61.44
66090;BME280;53113;45.602;11.904;2022-09-12T00:24:16;101379.94;;;19.50;61.47
66090;BME280;53113;45.602;11.904;2022-09-12T00:26:42;101381.14;;;19.47;61.55
66090;BME280;53113;45.602;11.904;2022-09-12T00:29:13;101379.90;;;19.44;61.52
66090;BME280;53113;45.602;11.904;2022-09-12T00:31:40;101379.09;;;19.39;61.55
66090;BME280;53113;45.602;11.904;2022-09-12T00:34:05;101381.38;;;19.34;61.60
66090;BME280;53113;45.602;11.904;2022-09-12T00:36:31;101382.23;;;19.29;61.61
66090;BME280;53113;45.602;11.904;2022-09-12T00:38:57;101379.02;;;19.26;61.63
66090;BME280;53113;45.602;11.904;2022-09-12T00:41:27;101378.63;;;19.21;61.79
66090;BME280;53113;45.602;11.904;2022-09-12T00:52:33;101371.75;;;19.15;62.01
66090;BME280;53113;45.602;11.904;2022-09-12T00:55:10;101371.70;;;19.14;62.04
66090;BME280;53113;45.602;11.904;2022-09-12T00:58:13;101371.62;;;19.07;62.16
66090;BME280;53113;45.602;11.904;2022-09-12T01:00:41;101369.94;;;19.02;62.32
66090;BME280;53113;45.602;11.904;2022-09-12T01:03:11;101368.27;;;18.97;62.30
66090;BME280;53113;45.602;11.904;2022-09-12T01:05:43;101371.58;;;18.93;62.32
66090;BME280;53113;45.602;11.904;2022-09-12T01:08:12;101369.41;;;18.92;62.76
66090;BME280;53113;45.602;11.904;2022-09-12T01:10:40;101367.83;;;18.91;62.82
66090;BME280;53113;45.602;11.904;2022-09-12T01:13:08;101367.64;;;18.92;62.69
66090;BME280;53113;45.602;11.904;2022-09-12T01:15:38;101365.96;;;18.90;62.84
66090;BME280;53113;45.602;11.904;2022-09-12T01:20:56;101363.13;;;18.83;63.03
66090;BME280;53113;45.602;11.904;2022-09-12T01:32:02;101364.21;;;18.70;63.46
66090;BME280;53113;45.602;11.904;2022-09-12T01:37:56;101363.22;;;18.73;63.45
66090;BME280;53113;45.602;11.904;2022-09-12T01:40:36;101364.56;;;18.72;63.58
66090;BME280;53113;45.602;11.904;2022-09-12T01:43:33;101364.23;;;18.70;63.54
66090;BME280;53113;45.602;11.904;2022-09-12T01:45:58;101354.86;;;18.66;63.53
66090;BME280;53113;45.602;11.904;2022-09-12T01:48:31;101358.73;;;18.63;63.77
66090;BME280;53113;45.602;11.904;2022-09-12T01:51:16;101357.59;;;18.61;63.96
66090;BME280;53113;45.602;11.904;2022-09-12T01:53:49;101351.34;;;18.60;63.93
66090;BME280;53113;45.602;11.904;2022-09-12T01:56:21;101348.59;;;18.63;63.83
66090;BME280;53113;45.602;11.904;2022-09-12T01:59:07;101349.91;;;18.66;63.95
66090;BME280;53113;45.602;11.904;2022-09-12T02:01:40;101342.15;;;18.66;64.02
66090;BME280;53113;45.602;11.904;2022-09-12T02:04:22;101346.39;;;18.67;64.14
66090;BME280;53113;45.602;11.904;2022-09-12T02:07:22;101343.97;;;18.66;64.30
66090;BME280;53113;45.602;11.904;2022-09-12T02:09:56;101353.08;;;18.66;64.57
66090;BME280;53113;45.602;11.904;2022-09-12T02:12:27;101350.98;;;18.66;64.80
66090;BME280;53113;45.602;11.904;2022-09-12T02:15:01;101353.77;;;18.68;65.16
66090;BME280;53113;45.602;11.904;2022-09-12T02:17:29;101356.23;;;18.73;65.34
66090;BME280;53113;45.602;11.904;2022-09-12T02:20:07;101351.73;;;18.77;65.48
66090;BME280;53113;45.602;11.904;2022-09-12T02:22:36;101351.18;;;18.80;65.50
66090;BME280;53113;45.602;11.904;2022-09-12T02:25:05;101353.28;;;18.83;65.64
66090;BME280;53113;45.602;11.904;2022-09-12T02:30:06;101346.95;;;18.85;65.74
66090;BME280;53113;45.602;11.904;2022-09-12T02:32:40;101339.35;;;18.85;65.75
66090;BME280;53113;45.602;11.904;2022-09-12T02:40:37;101341.39;;;19.01;65.68
66090;BME280;53113;45.602;11.904;2022-09-12T02:43:04;101340.57;;;19.03;65.56
66090;BME280;53113;45.602;11.904;2022-09-12T02:45:31;101337.77;;;19.05;65.65
66090;BME280;53113;45.602;11.904;2022-09-12T02:50:24;101334.44;;;19.05;65.61
66090;BME280;53113;45.602;11.904;2022-09-12T02:52:51;101337.92;;;19.05;65.64
66090;BME280;53113;45.602;11.904;2022-09-12T02:55:19;101331.57;;;19.05;65.57
66090;BME280;53113;45.602;11.904;2022-09-12T02:57:44;101330.85;;;19.07;65.44
66090;BME280;53113;45.602;11.904;2022-09-12T03:00:10;101331.41;;;19.11;65.36
66090;BME280;53113;45.602;11.904;2022-09-12T03:05:24;101334.70;;;19.10;65.22
66090;BME280;53113;45.602;11.904;2022-09-12T03:13:22;101333.70;;;19.02;65.12
66090;BME280;53113;45.602;11.904;2022-09-12T03:21:32;101327.96;;;19.04;65.00
66090;BME280;53113;45.602;11.904;2022-09-12T03:24:10;101329.00;;;19.02;64.96
66090;BME280;53113;45.602;11.904;2022-09-12T03:26:51;101329.58;;;19.00;65.04
66090;BME280;53113;45.602;11.904;2022-09-12T03:29:21;101329.84;;;18.98;65.00
66090;BME280;53113;45.602;11.904;2022-09-12T03:31:52;101331.92;;;18.95;65.06
66090;BME280;53113;45.602;11.904;2022-09-12T03:34:20;101331.20;;;18.93;65.00
66090;BME280;53113;45.602;11.904;2022-09-12T03:36:47;101331.30;;;18.87;65.09
66090;BME280;53113;45.602;11.904;2022-09-12T03:39:14;101335.18;;;18.86;65.10
66090;BME280;53113;45.602;11.904;2022-09-12T03:41:40;101333.02;;;18.86;65.09
66090;BME280;53113;45.602;11.904;2022-09-12T03:44:06;101334.02;;;18.85;64.96
66090;BME280;53113;45.602;11.904;2022-09-12T03:46:32;101331.55;;;18.83;64.98
66090;BME280;53113;45.602;11.904;2022-09-12T03:48:58;101336.08;;;18.80;64.94
66090;BME280;53113;45.602;11.904;2022-09-12T03:51:24;101336.19;;;18.78;64.98
66090;BME280;53113;45.602;11.904;2022-09-12T03:53:50;101336.20;;;18.74;65.07
66090;BME280;53113;45.602;11.904;2022-09-12T03:56:16;101333.19;;;18.70;65.32
66090;BME280;53113;45.602;11.904;2022-09-12T03:58:44;101330.91;;;18.64;65.31
66090;BME280;53113;45.602;11.904;2022-09-12T04:01:17;101330.46;;;18.61;65.43
66090;BME280;53113;45.602;11.904;2022-09-12T04:03:46;101333.23;;;18.64;65.53
66090;BME280;53113;45.602;11.904;2022-09-12T04:06:14;101335.74;;;18.64;65.44
66090;BME280;53113;45.602;11.904;2022-09-12T04:08:42;101338.04;;;18.62;65.47
66090;BME280;53113;45.602;11.904;2022-09-12T04:11:13;101344.65;;;18.61;65.64
66090;BME280;53113;45.602;11.904;2022-09-12T04:13:41;101340.77;;;18.57;65.62
66090;BME280;53113;45.602;11.904;2022-09-12T04:16:14;101344.18;;;18.55;65.83
66090;BME280;53113;45.602;11.904;2022-09-12T04:18:41;101344.72;;;18.51;65.90
66090;BME280;53113;45.602;11.904;2022-09-12T04:21:12;101344.13;;;18.50;65.97
66090;BME280;53113;45.602;11.904;2022-09-12T04:23:38;101344.50;;;18.52;65.96
66090;BME280;53113;45.602;11.904;2022-09-12T04:26:05;101344.74;;;18.53;65.92
66090;BME280;53113;45.602;11.904;2022-09-12T04:28:31;101339.70;;;18.51;66.01
66090;BME280;53113;45.602;11.904;2022-09-12T04:31:02;101345.06;;;18.52;66.07
66090;BME280;53113;45.602;11.904;2022-09-12T04:33:29;101347.23;;;18.50;66.16
66090;BME280;53113;45.602;11.904;2022-09-12T04:35:54;101344.08;;;18.47;66.28
66090;BME280;53113;45.602;11.904;2022-09-12T04:38:20;101344.77;;;18.45;66.31
66090;BME280;53113;45.602;11.904;2022-09-12T04:40:46;101348.70;;;18.45;66.29
66090;BME280;53113;45.602;11.904;2022-09-12T04:43:12;101350.29;;;18.45;66.27
66090;BME280;53113;45.602;11.904;2022-09-12T04:45:37;101351.27;;;18.47;66.24
66090;BME280;53113;45.602;11.904;2022-09-12T04:48:03;101351.13;;;18.48;66.21
66090;BME280;53113;45.602;11.904;2022-09-12T04:50:29;101352.09;;;18.47;66.29
66090;BME280;53113;45.602;11.904;2022-09-12T04:52:55;101350.23;;;18.46;66.27
66090;BME280;53113;45.602;11.904;2022-09-12T04:55:21;101349.73;;;18.44;66.29
66090;BME280;53113;45.602;11.904;2022-09-12T04:57:47;101352.39;;;18.43;66.37
66090;BME280;53113;45.602;11.904;2022-09-12T05:00:13;101348.36;;;18.42;66.34
66090;BME280;53113;45.602;11.904;2022-09-12T05:02:43;101345.00;;;18.41;66.31
66090;BME280;53113;45.602;11.904;2022-09-12T05:05:09;101348.54;;;18.43;66.23
66090;BME280;53113;45.602;11.904;2022-09-12T05:07:36;101353.55;;;18.43;66.24
66090;BME280;53113;45.602;11.904;2022-09-12T05:10:02;101353.23;;;18.41;66.14
66090;BME280;53113;45.602;11.904;2022-09-12T05:12:29;101359.14;;;18.40;66.09
66090;BME280;53113;45.602;11.904;2022-09-12T05:14:56;101358.08;;;18.38;66.10
66090;BME280;53113;45.602;11.904;2022-09-12T05:17:21;101360.73;;;18.35;66.12
66090;BME280;53113;45.602;11.904;2022-09-12T05:19:47;101362.40;;;18.34;66.16
66090;BME280;53113;45.602;11.904;2022-09-12T05:22:13;101367.58;;;18.36;66.23
66090;BME280;53113;45.602;11.904;2022-09-12T05:24:38;101368.86;;;18.37;66.32
66090;BME280;53113;45.602;11.904;2022-09-12T05:27:07;101373.10;;;18.38;66.35
66090;BME280;53113;45.602;11.904;2022-09-12T05:29:33;101376.65;;;18.40;66.36
66090;BME280;53113;45.602;11.904;2022-09-12T05:31:59;101375.23;;;18.39;66.48
66090;BME280;53113;45.602;11.904;2022-09-12T05:34:25;101378.08;;;18.39;66.66
66090;BME280;53113;45.602;11.904;2022-09-12T05:36:52;101377.79;;;18.40;66.85
66090;BME280;53113;45.602;11.904;2022-09-12T05:39:18;101376.50;;;18.42;67.00
66090;BME280;53113;45.602;11.904;2022-09-12T05:41:44;101381.41;;;18.48;67.15
66090;BME280;53113;45.602;11.904;2022-09-12T05:44:11;101376.60;;;18.55;67.28
66090;BME280;53113;45.602;11.904;2022-09-12T05:46:40;101384.31;;;18.62;67.48
66090;BME280;53113;45.602;11.904;2022-09-12T05:49:09;101389.73;;;18.69;67.59
66090;BME280;53113;45.602;11.904;2022-09-12T05:51:35;101387.17;;;18.76;67.72
66090;BME280;53113;45.602;11.904;2022-09-12T05:54:07;101388.33;;;18.85;67.75
66090;BME280;53113;45.602;11.904;2022-09-12T05:56:37;101392.51;;;18.97;67.93
66090;BME280;53113;45.602;11.904;2022-09-12T05:59:06;101393.49;;;19.11;67.96
66090;BME280;53113;45.602;11.904;2022-09-12T06:01:33;101392.69;;;19.25;67.87
66090;BME280;53113;45.602;11.904;2022-09-12T06:04:00;101391.23;;;19.38;67.90
66090;BME280;53113;45.602;11.904;2022-09-12T06:06:29;101389.98;;;19.50;68.04
66090;BME280;53113;45.602;11.904;2022-09-12T06:08:58;101389.44;;;19.66;68.08
66090;BME280;53113;45.602;11.904;2022-09-12T06:11:24;101390.92;;;19.81;68.06
66090;BME280;53113;45.602;11.904;2022-09-12T06:13:51;101392.58;;;19.96;67.98
66090;BME280;53113;45.602;11.904;2022-09-12T06:16:19;101396.05;;;20.14;67.77
66090;BME280;53113;45.602;11.904;2022-09-12T06:18:47;101399.09;;;20.33;67.63
66090;BME280;53113;45.602;11.904;2022-09-12T06:21:14;101396.61;;;20.52;67.44
66090;BME280;53113;45.602;11.904;2022-09-12T06:23:41;101397.73;;;20.71;67.20
66090;BME280;53113;45.602;11.904;2022-09-12T06:26:09;101400.89;;;20.92;66.86
66090;BME280;53113;45.602;11.904;2022-09-12T06:28:37;101399.50;;;21.19;66.56
66090;BME280;53113;45.602;11.904;2022-09-12T06:31:07;101402.04;;;21.42;66.34
66090;BME280;53113;45.602;11.904;2022-09-12T06:33:36;101406.26;;;21.67;65.85
66090;BME280;53113;45.602;11.904;2022-09-12T06:36:13;101405.99;;;21.91;65.12
66090;BME280;53113;45.602;11.904;2022-09-12T06:38:40;101408.71;;;22.11;64.51
66090;BME280;53113;45.602;11.904;2022-09-12T06:41:09;101408.22;;;22.29;64.19
66090;BME280;53113;45.602;11.904;2022-09-12T06:43:35;101408.10;;;22.52;63.86
66090;BME280;53113;45.602;11.904;2022-09-12T06:46:02;101410.28;;;22.76;63.72
66090;BME280;53113;45.602;11.904;2022-09-12T06:48:28;101412.58;;;23.04;63.43
66090;BME280;53113;45.602;11.904;2022-09-12T06:50:59;101409.52;;;23.25;63.00
66090;BME280;53113;45.602;11.904;2022-09-12T06:53:28;101410.33;;;23.58;62.22
66090;BME280;53113;45.602;11.904;2022-09-12T06:56:22;101409.05;;;23.85;61.75
66090;BME280;53113;45.602;11.904;2022-09-12T06:58:48;101408.27;;;24.15;60.80
66090;BME280;53113;45.602;11.904;2022-09-12T07:01:19;101410.17;;;24.41;60.24
66090;BME280;53113;45.602;11.904;2022-09-12T07:03:49;101406.58;;;24.64;59.67
66090;BME280;53113;45.602;11.904;2022-09-12T07:06:18;101407.02;;;24.86;59.04
66090;BME280;53113;45.602;11.904;2022-09-12T07:08:44;101405.13;;;25.04;57.69
66090;BME280;53113;45.602;11.904;2022-09-12T07:11:22;101407.05;;;25.20;57.31
66090;BME280;53113;45.602;11.904;2022-09-12T07:13:51;101403.98;;;25.39;57.04
66090;BME280;53113;45.602;11.904;2022-09-12T07:16:18;101404.23;;;25.58;56.75
66090;BME280;53113;45.602;11.904;2022-09-12T07:18:44;101403.16;;;25.77;56.56
66090;BME280;53113;45.602;11.904;2022-09-12T07:21:13;101404.13;;;25.95;55.86
66090;BME280;53113;45.602;11.904;2022-09-12T07:23:40;101402.08;;;26.13;55.04
66090;BME280;53113;45.602;11.904;2022-09-12T07:26:09;101401.23;;;26.32;54.19
66090;BME280;53113;45.602;11.904;2022-09-12T07:28:35;101403.84;;;26.48;53.69
66090;BME280;53113;45.602;11.904;2022-09-12T07:31:09;101401.44;;;26.65;53.35
66090;BME280;53113;45.602;11.904;2022-09-12T07:33:36;101401.00;;;26.79;52.30
66090;BME280;53113;45.602;11.904;2022-09-12T07:36:08;101398.97;;;26.91;51.77
66090;BME280;53113;45.602;11.904;2022-09-12T07:38:36;101395.48;;;27.02;51.44
66090;BME280;53113;45.602;11.904;2022-09-12T07:41:18;101398.92;;;27.13;50.40
66090;BME280;53113;45.602;11.904;2022-09-12T07:43:46;101396.73;;;27.21;49.58
66090;BME280;53113;45.602;11.904;2022-09-12T07:46:12;101399.24;;;27.30;48.97
66090;BME280;53113;45.602;11.904;2022-09-12T07:48:39;101400.64;;;27.39;48.83
66090;BME280;53113;45.602;11.904;2022-09-12T07:51:10;101406.58;;;27.47;48.42
66090;BME280;53113;45.602;11.904;2022-09-12T07:53:40;101404.60;;;27.55;48.49
66090;BME280;53113;45.602;11.904;2022-09-12T07:56:08;101402.20;;;27.64;48.04
66090;BME280;53113;45.602;11.904;2022-09-12T07:58:35;101399.83;;;27.70;47.88
66090;BME280;53113;45.602;11.904;2022-09-12T08:01:05;101402.08;;;27.76;47.72
66090;BME280;53113;45.602;11.904;2022-09-12T08:03:34;101405.10;;;27.84;47.54
66090;BME280;53113;45.602;11.904;2022-09-12T08:06:12;101409.33;;;27.96;47.66
66090;BME280;53113;45.602;11.904;2022-09-12T08:08:39;101410.20;;;28.08;46.97
66090;BME280;53113;45.602;11.904;2022-09-12T08:11:09;101411.42;;;28.17;46.46
66090;BME280;53113;45.602;11.904;2022-09-12T08:13:37;101407.08;;;28.27;46.38
66090;BME280;53113;45.602;11.904;2022-09-12T08:16:06;101407.23;;;28.43;45.92
66090;BME280;53113;45.602;11.904;2022-09-12T08:18:33;101409.75;;;28.55;45.40
66090;BME280;53113;45.602;11.904;2022-09-12T08:21:06;101407.89;;;28.64;45.01
66090;BME280;53113;45.602;11.904;2022-09-12T08:23:32;101411.27;;;28.75;44.43
66090;BME280;53113;45.602;11.904;2022-09-12T08:26:00;101416.86;;;28.87;44.45
66090;BME280;53113;45.602;11.904;2022-09-12T08:28:29;101415.83;;;29.03;44.38
66090;BME280;53113;45.602;11.904;2022-09-12T08:33:27;101410.56;;;29.41;43.59
66090;BME280;53113;45.602;11.904;2022-09-12T08:36:06;101410.27;;;29.59;43.17
66090;BME280;53113;45.602;11.904;2022-09-12T08:38:36;101410.23;;;29.80;42.69
66090;BME280;53113;45.602;11.904;2022-09-12T08:49:26;101407.65;;;30.55;41.17
66090;BME280;53113;45.602;11.904;2022-09-12T08:51:56;101410.04;;;30.75;40.68
66090;BME280;53113;45.602;11.904;2022-09-12T08:54:27;101408.52;;;30.94;40.36
66090;BME280;53113;45.602;11.904;2022-09-12T08:56:57;101408.79;;;31.13;39.99
66090;BME280;53113;45.602;11.904;2022-09-12T08:59:32;101407.02;;;31.31;39.62
66090;BME280;53113;45.602;11.904;2022-09-12T09:02:01;101404.16;;;31.46;39.17
66090;BME280;53113;45.602;11.904;2022-09-12T09:10:14;101403.67;;;31.98;38.38
66090;BME280;53113;45.602;11.904;2022-09-12T09:13:06;101404.99;;;32.17;37.67
66090;BME280;53113;45.602;11.904;2022-09-12T09:15:59;101401.91;;;32.33;37.15
66090;BME280;53113;45.602;11.904;2022-09-12T09:18:31;101394.73;;;32.51;37.01
66090;BME280;53113;45.602;11.904;2022-09-12T09:21:19;101395.14;;;32.70;36.89
66090;BME280;53113;45.602;11.904;2022-09-12T09:23:51;101395.00;;;32.90;36.26
66090;BME280;53113;45.602;11.904;2022-09-12T09:26:47;101393.32;;;33.11;36.08
66090;BME280;53113;45.602;11.904;2022-09-12T09:29:17;101385.68;;;33.32;36.00
66090;BME280;53113;45.602;11.904;2022-09-12T09:31:47;101388.91;;;33.53;35.69
66090;BME280;53113;45.602;11.904;2022-09-12T09:34:22;101382.77;;;33.74;34.97
66090;BME280;53113;45.602;11.904;2022-09-12T09:36:54;101380.16;;;33.94;34.79
66090;BME280;53113;45.602;11.904;2022-09-12T09:45:16;101368.88;;;34.54;33.87
66090;BME280;53113;45.602;11.904;2022-09-12T09:50:42;101365.10;;;34.92;33.26
66090;BME280;53113;45.602;11.904;2022-09-12T09:53:19;101361.23;;;35.13;33.08
66090;BME280;53113;45.602;11.904;2022-09-12T09:55:47;101362.14;;;35.31;32.71
66090;BME280;53113;45.602;11.904;2022-09-12T09:58:34;101360.53;;;35.49;32.20
66090;BME280;53113;45.602;11.904;2022-09-12T10:01:05;101359.77;;;35.67;32.05
66090;BME280;53113;45.602;11.904;2022-09-12T10:03:52;101357.29;;;35.83;31.89
66090;BME280;53113;45.602;11.904;2022-09-12T10:08:46;101360.02;;;36.02;30.68
66090;BME280;53113;45.602;11.904;2022-09-12T10:18:48;101360.05;;;36.26;30.28
66090;BME280;53113;45.602;11.904;2022-09-12T10:24:24;101351.39;;;36.49;29.77
66090;BME280;53113;45.602;11.904;2022-09-12T10:27:07;101351.10;;;36.63;29.77
66090;BME280;53113;45.602;11.904;2022-09-12T10:29:39;101354.75;;;36.79;29.56
66090;BME280;53113;45.602;11.904;2022-09-12T10:32:12;101353.36;;;36.96;29.15
66090;BME280;53113;45.602;11.904;2022-09-12T10:34:44;101351.48;;;37.15;29.12
66090;BME280;53113;45.602;11.904;2022-09-12T10:37:35;101351.82;;;37.33;28.97
66090;BME280;53113;45.602;11.904;2022-09-12T10:40:03;101347.45;;;37.51;28.55
66090;BME280;53113;45.602;11.904;2022-09-12T10:45:31;101346.16;;;37.73;28.16
66090;BME280;53113;45.602;11.904;2022-09-12T10:48:47;101341.30;;;37.80;27.75
66090;BME280;53113;45.602;11.904;2022-09-12T10:50:47;101340.38;;;37.91;27.67
66090;BME280;53113;45.602;11.904;2022-09-12T10:59:02;101341.81;;;38.32;27.32
66090;BME280;53113;45.602;11.904;2022-09-12T11:04:23;101336.05;;;38.56;26.32
66090;BME280;53113;45.602;11.904;2022-09-12T11:09:47;101329.92;;;38.60;25.33
66090;BME280;53113;45.602;11.904;2022-09-12T11:20:16;101334.11;;;38.05;25.41
66090;BME280;53113;45.602;11.904;2022-09-12T11:34:09;101321.64;;;37.11;25.81
66090;BME280;53113;45.602;11.904;2022-09-12T11:39:37;101316.86;;;36.79;26.13
66090;BME280;53113;45.602;11.904;2022-09-12T11:42:09;101313.64;;;36.63;26.82
66090;BME280;53113;45.602;11.904;2022-09-12T11:44:42;101311.35;;;36.48;26.78
66090;BME280;53113;45.602;11.904;2022-09-12T11:47:12;101308.47;;;36.36;26.99
66090;BME280;53113;45.602;11.904;2022-09-12T11:49:46;101306.81;;;36.36;27.30
66090;BME280;53113;45.602;11.904;2022-09-12T11:52:15;101310.02;;;36.47;27.00
66090;BME280;53113;45.602;11.904;2022-09-12T11:55:17;101305.64;;;36.65;26.70
66090;BME280;53113;45.602;11.904;2022-09-12T11:57:53;101301.95;;;36.93;26.51
66090;BME280;53113;45.602;11.904;2022-09-12T12:00:26;101303.91;;;37.14;26.47
66090;BME280;53113;45.602;11.904;2022-09-12T12:06:10;101296.55;;;37.55;25.77
66090;BME280;53113;45.602;11.904;2022-09-12T12:08:42;101289.79;;;37.77;25.46
66090;BME280;53113;45.602;11.904;2022-09-12T12:11:09;101291.29;;;37.95;25.14
66090;BME280;53113;45.602;11.904;2022-09-12T12:18:35;101286.56;;;38.49;25.21
66090;BME280;53113;45.602;11.904;2022-09-12T12:45:45;101268.70;;;39.91;23.60
66090;BME280;53113;45.602;11.904;2022-09-12T12:47:47;101264.45;;;40.18;22.80
66090;BME280;53113;45.602;11.904;2022-09-12T12:57:53;101251.14;;;40.78;21.77
66090;BME280;53113;45.602;11.904;2022-09-12T13:05:48;101241.92;;;41.12;20.85
66090;BME280;53113;45.602;11.904;2022-09-12T13:10:52;101231.61;;;41.17;20.89
66090;BME280;53113;45.602;11.904;2022-09-12T13:13:30;101227.31;;;41.23;21.34
66090;BME280;53113;45.602;11.904;2022-09-12T13:15:56;101230.28;;;41.31;21.01
66090;BME280;53113;45.602;11.904;2022-09-12T13:18:41;101226.95;;;41.36;21.35
66090;BME280;53113;45.602;11.904;2022-09-12T13:21:15;101222.71;;;41.42;21.22
66090;BME280;53113;45.602;11.904;2022-09-12T13:23:42;101219.80;;;41.38;21.15
66090;BME280;53113;45.602;11.904;2022-09-12T13:26:11;101217.02;;;41.31;21.11
66090;BME280;53113;45.602;11.904;2022-09-12T13:28:37;101217.33;;;41.21;21.06
66090;BME280;53113;45.602;11.904;2022-09-12T13:31:23;101211.50;;;41.06;20.75
66090;BME280;53113;45.602;11.904;2022-09-12T13:33:56;101210.25;;;40.91;21.28
66090;BME280;53113;45.602;11.904;2022-09-12T13:39:20;101207.03;;;40.76;21.10
66090;BME280;53113;45.602;11.904;2022-09-12T13:42:01;101199.43;;;40.77;20.84
66090;BME280;53113;45.602;11.904;2022-09-12T13:44:40;101203.69;;;40.82;20.56
66090;BME280;53113;45.602;11.904;2022-09-12T13:47:09;101202.41;;;40.87;20.54
66090;BME280;53113;45.602;11.904;2022-09-12T13:49:39;101195.81;;;40.91;20.61
66090;BME280;53113;45.602;11.904;2022-09-12T13:52:19;101197.66;;;40.96;20.28
66090;BME280;53113;45.602;11.904;2022-09-12T13:54:48;101192.20;;;40.99;20.30
66090;BME280;53113;45.602;11.904;2022-09-12T13:59:56;101183.75;;;41.01;20.30
66090;BME280;53113;45.602;11.904;2022-09-12T14:02:23;101182.04;;;40.97;20.09
66090;BME280;53113;45.602;11.904;2022-09-12T14:04:51;101178.30;;;40.98;20.23
66090;BME280;53113;45.602;11.904;2022-09-12T14:07:50;101179.98;;;41.03;20.05
66090;BME280;53113;45.602;11.904;2022-09-12T14:10:31;101174.63;;;41.08;20.07
66090;BME280;53113;45.602;11.904;2022-09-12T14:12:59;101172.60;;;41.07;19.82
66090;BME280;53113;45.602;11.904;2022-09-12T14:15:28;101170.85;;;41.00;19.63
66090;BME280;53113;45.602;11.904;2022-09-12T14:17:59;101165.96;;;40.91;19.61
66090;BME280;53113;45.602;11.904;2022-09-12T14:20:28;101163.94;;;40.85;19.48
66090;BME280;53113;45.602;11.904;2022-09-12T14:23:05;101162.04;;;40.74;19.87
66090;BME280;53113;45.602;11.904;2022-09-12T14:25:37;101163.66;;;40.68;19.96
66090;BME280;53113;45.602;11.904;2022-09-12T14:28:06;101160.11;;;40.63;20.02
66090;BME280;53113;45.602;11.904;2022-09-12T14:30:37;101158.83;;;40.60;19.99
66090;BME280;53113;45.602;11.904;2022-09-12T14:35:39;101148.67;;;40.44;20.06
66090;BME280;53113;45.602;11.904;2022-09-12T14:40:43;101145.66;;;40.20;20.10
66090;BME280;53113;45.602;11.904;2022-09-12T14:45:50;101143.77;;;39.94;20.32
66090;BME280;53113;45.602;11.904;2022-09-12T14:48:18;101140.70;;;39.82;20.38
66090;BME280;53113;45.602;11.904;2022-09-12T14:50:51;101140.00;;;39.72;20.58
66090;BME280;53113;45.602;11.904;2022-09-12T14:55:51;101134.91;;;39.53;20.72
66090;BME280;53113;45.602;11.904;2022-09-12T14:58:23;101132.89;;;39.44;20.65
66090;BME280;53113;45.602;11.904;2022-09-12T15:05:56;101128.59;;;38.92;20.96
66090;BME280;53113;45.602;11.904;2022-09-12T15:08:23;101129.23;;;38.69;21.11
66090;BME280;53113;45.602;11.904;2022-09-12T15:10:49;101127.32;;;38.39;21.36
66090;BME280;53113;45.602;11.904;2022-09-12T15:13:23;101121.00;;;38.10;21.68
66090;BME280;53113;45.602;11.904;2022-09-12T15:15:55;101118.73;;;37.76;21.73
66090;BME280;53113;45.602;11.904;2022-09-12T15:18:23;101115.66;;;37.44;21.96
66090;BME280;53113;45.602;11.904;2022-09-12T15:20:57;101121.39;;;37.14;22.64
66090;BME280;53113;45.602;11.904;2022-09-12T15:23:39;101117.95;;;36.84;23.30
66090;BME280;53113;45.602;11.904;2022-09-12T15:26:11;101114.38;;;36.61;23.52
66090;BME280;53113;45.602;11.904;2022-09-12T15:28:36;101118.63;;;36.42;23.96
66090;BME280;53113;45.602;11.904;2022-09-12T15:31:10;101119.71;;;36.24;24.26
66090;BME280;53113;45.602;11.904;2022-09-12T15:33:37;101114.11;;;36.04;24.56
66090;BME280;53113;45.602;11.904;2022-09-12T15:36:04;101114.18;;;35.83;25.38
66090;BME280;53113;45.602;11.904;2022-09-12T15:38:36;101113.33;;;35.61;26.28
66090;BME280;53113;45.602;11.904;2022-09-12T15:41:02;101112.16;;;35.37;26.51
66090;BME280;53113;45.602;11.904;2022-09-12T15:43:28;101113.24;;;35.13;26.49
66090;BME280;53113;45.602;11.904;2022-09-12T15:45:53;101116.02;;;34.90;26.53
66090;BME280;53113;45.602;11.904;2022-09-12T15:48:19;101117.73;;;34.68;26.79
66090;BME280;53113;45.602;11.904;2022-09-12T15:50:45;101113.40;;;34.46;27.25
66090;BME280;53113;45.602;11.904;2022-09-12T15:53:13;101113.67;;;34.35;27.55
66090;BME280;53113;45.602;11.904;2022-09-12T15:55:40;101114.05;;;34.33;28.03
66090;BME280;53113;45.602;11.904;2022-09-12T15:58:06;101113.70;;;34.38;28.64
66090;BME280;53113;45.602;11.904;2022-09-12T16:00:33;101111.17;;;34.51;28.93
66090;BME280;53113;45.602;11.904;2022-09-12T16:02:59;101112.63;;;34.60;28.65
66090;BME280;53113;45.602;11.904;2022-09-12T16:05:25;101113.50;;;34.69;28.69
66090;BME280;53113;45.602;11.904;2022-09-12T16:07:52;101109.90;;;34.75;28.11
66090;BME280;53113;45.602;11.904;2022-09-12T16:10:22;101110.68;;;34.77;28.14